Alvord, Iowa
Current Conditions -  °F | °C
As of 1:34 PM on Thursday 30 Oct 2014 (Local Time) from KLYV Reporting Station
Scattered Clouds Scattered Clouds  
Wind Chill: 59°   Ceiling: Unl
Heat Index: 59°   Visibility: 10mi
Dew Point: 34°   Wind: 14mph
Humidity: 39%   Direction: 10°N
Pressure: 30.1"   Gusts: 17mph
Location:  43.34°N, 96.3°W
Report Text: KLYV 301834Z AUTO 01012G15KT 10SM SCT046 15/01 A3010 RMK AO2
Loading
Personal Weather Stations






























Interactive Weather Map
Tropical Storm Tracking
New forecast layout! Learn more

10-Day Weather Forecast

Advertisements
Track Severe Weather on mobile